MSC Nuria — 3ESE2 — position and weather

sailwx.info

Track history (hours):
 
Tides and Currents Weather Stations Pressure Air Temp Water Temp Dewpoint Dewpoint Depression Visibility Wind Speed Wind Dir Waves Ship Positions

MSC Nuria

Last reported at 2015-Aug-28 23:31 UTC. Time now 2015-Aug-29 00:25 UTC.
Position N 40°38' W 074°11'.

Length 275 m; draft 10 m.

Type: Ship (hazmat cat A). MMSI: 370272977.

Date/timePositionNaut miles runAvg speedWind from/ knotsBaromVisibWave heightAir tempDewpointWater temp
2015-Aug-28 23:31N 40°38' W 074°11'0 0.0
2015-Aug-28 22:28N 40°38' W 074°11'0 0.0
2015-Aug-28 21:33N 40°38' W 074°11'0 0.2
2015-Aug-28 20:33N 40°39' W 074°11'0 0.0
2015-Aug-28 19:32N 40°39' W 074°11'0 0.0
2015-Aug-28 18:32N 40°39' W 074°11'0 0.0
2015-Aug-28 17:32N 40°39' W 074°11'0 0.0
2015-Aug-28 16:28N 40°39' W 074°11'0 0.0
2015-Aug-28 15:31N 40°39' W 074°11'0 0.0
2015-Aug-28 14:33N 40°39' W 074°11'0 0.0
2015-Aug-28 13:33N 40°39' W 074°11'0 0.0
2015-Aug-28 12:32N 40°39' W 074°11'0 0.0
2015-Aug-28 11:32N 40°39' W 074°11'0 0.0
2015-Aug-28 10:32N 40°39' W 074°11'1 0.6
2015-Aug-28 09:33N 40°39' W 074°11'6 5.8
2015-Aug-28 08:33N 40°38' W 074°03'9 9.4
2015-Aug-28 07:33N 40°30' W 073°57'10 9.6
2015-Aug-28 06:33N 40°23' W 073°47'1312.7
2015-Aug-28 05:32N 40°11' W 073°45'1818.3
2015-Aug-28 04:33N 39°53' W 073°42'1918.8
2015-Aug-28 03:33N 39°34' W 073°42'79921.4
2015-Aug-26 14:11N 27°06' W 079°17'1320.3
2015-Aug-26 13:33N 26°54' W 079°14'41 1.7
2015-Aug-25 14:07N 26°13' W 079°11'1221.5
2015-Aug-25 13:33N 26°07' W 079°23'2222.2
2015-Aug-25 12:33N 25°45' W 079°25'  
Track history (hours):
 
Tides and Currents Weather Stations Pressure Air Temp Water Temp Dewpoint Dewpoint Depression Visibility Wind Speed Wind Dir Waves Ship Positions

MSC Nuria

Last reported at 2015-Aug-28 23:31 UTC. Time now 2015-Aug-29 00:25 UTC.
Position N 40°38' W 074°11'.

Length 275 m; draft 10 m.

Type: Ship (hazmat cat A). MMSI: 370272977.

Date/timePositionNaut miles runAvg speedWind from/ knotsBaromVisibWave heightAir tempDewpointWater temp
2015-Aug-28 23:31N 40°38' W 074°11'0 0.0
2015-Aug-28 22:28N 40°38' W 074°11'0 0.0
2015-Aug-28 21:33N 40°38' W 074°11'0 0.2
2015-Aug-28 20:33N 40°39' W 074°11'0 0.0
2015-Aug-28 19:32N 40°39' W 074°11'0 0.0
2015-Aug-28 18:32N 40°39' W 074°11'0 0.0
2015-Aug-28 17:32N 40°39' W 074°11'0 0.0
2015-Aug-28 16:28N 40°39' W 074°11'0 0.0
2015-Aug-28 15:31N 40°39' W 074°11'0 0.0
2015-Aug-28 14:33N 40°39' W 074°11'0 0.0
2015-Aug-28 13:33N 40°39' W 074°11'0 0.0
2015-Aug-28 12:32N 40°39' W 074°11'0 0.0
2015-Aug-28 11:32N 40°39' W 074°11'0 0.0
2015-Aug-28 10:32N 40°39' W 074°11'1 0.6
2015-Aug-28 09:33N 40°39' W 074°11'6 5.8
2015-Aug-28 08:33N 40°38' W 074°03'9 9.4
2015-Aug-28 07:33N 40°30' W 073°57'10 9.6
2015-Aug-28 06:33N 40°23' W 073°47'1312.7
2015-Aug-28 05:32N 40°11' W 073°45'1818.3
2015-Aug-28 04:33N 39°53' W 073°42'1918.8
2015-Aug-28 03:33N 39°34' W 073°42'79921.4
2015-Aug-26 14:11N 27°06' W 079°17'1320.3
2015-Aug-26 13:33N 26°54' W 079°14'41 1.7
2015-Aug-25 14:07N 26°13' W 079°11'1221.5
2015-Aug-25 13:33N 26°07' W 079°23'2222.2
2015-Aug-25 12:33N 25°45' W 079°25'  

Dump ship's entire track history